»·PEaware :: N416JK KSBA-KONT

N416JK :: KSBA-KONT

FLIGHT INFORMATION

Flight Status: Arrived
Operator: Privately registered:
United States
More flights under this callsign
Pilot: John K. (4202)
Aircraft: CESSNA 152 AEROBAT
(C152)
More flights by this aircraft type
Origin: KSBA Santa Barbara Mun
United States
Destination: KONT Ontario Intl
United States
More flights between these airports :: More routes between these airports
Route: +KWANG CMA VNY V186 PDZ
File this flight plan on PilotEdge
Remarks:
Altitude:
(Current/Filed)
5,000ft
Speed:
(Current/Filed)
95kts
Departed: 04-Sep-18 08:06 AM
Arrived: 04-Sep-18 09:46 AM
Distance/Time
Traveled:
113nm/1:40
Distance/Time
To Go:
Arrived

Flight Plot

Page will automatically refresh every two minutes.


Map Options




Map Legend


Flown Route
Filed Route
Departure Airport
Arrival Airport
Navaid (VOR, NDB)
Fix

Horizontal Profiles

Position Reports

Time Latitude Longitude Heading Altitude Ground
Speed
04-Sep-18 08:00 34.432577 -119.835076 71 16ft 0kts
04-Sep-18 08:01 34.432577 -119.835076 71 16ft 0kts
04-Sep-18 08:02 34.432577 -119.835076 71 16ft 0kts
04-Sep-18 08:03 34.432577 -119.835076 71 16ft 0kts
04-Sep-18 08:04 34.432577 -119.835074 77 16ft 0kts
04-Sep-18 08:05 34.429388 -119.835276 181 16ft 22kts
04-Sep-18 08:06 34.429199 -119.835276 178 16ft 0kts
04-Sep-18 08:07 34.427840 -119.839793 269 17ft 75kts
04-Sep-18 08:08 34.422594 -119.865875 261 831ft 94kts
04-Sep-18 08:09 34.418075 -119.896898 261 1742ft 78kts
04-Sep-18 08:10 34.414172 -119.921531 262 2606ft 73kts
04-Sep-18 08:11 34.410337 -119.945415 260 3398ft 72kts
04-Sep-18 08:12 34.399199 -119.960058 144 4141ft 69kts
04-Sep-18 08:13 34.394687 -119.940248 97 4860ft 62kts
04-Sep-18 08:14 34.389609 -119.913836 98 5005ft 94kts
04-Sep-18 08:15 34.384946 -119.890368 99 4998ft 96kts
04-Sep-18 08:16 34.382332 -119.877190 100 4984ft 100kts
04-Sep-18 08:17 34.376867 -119.849919 100 4981ft 102kts
04-Sep-18 08:18 34.370183 -119.816582 100 4981ft 102kts
04-Sep-18 08:19 34.363471 -119.783118 100 4981ft 102kts
04-Sep-18 08:20 34.356813 -119.749959 100 4981ft 102kts
04-Sep-18 08:21 34.350779 -119.719948 100 4981ft 102kts
04-Sep-18 08:22 34.346712 -119.699743 100 4980ft 102kts
04-Sep-18 08:23 34.340100 -119.666932 100 4980ft 102kts
04-Sep-18 08:24 34.333425 -119.633857 100 4979ft 102kts
04-Sep-18 08:25 34.326636 -119.600269 99 4979ft 102kts
04-Sep-18 08:26 34.319859 -119.566788 99 4978ft 102kts
04-Sep-18 08:27 34.313045 -119.533175 99 4977ft 102kts
04-Sep-18 08:28 34.305833 -119.499613 101 4976ft 103kts
04-Sep-18 08:29 34.298225 -119.466202 101 4975ft 103kts
04-Sep-18 08:30 34.290587 -119.432774 101 4974ft 103kts
04-Sep-18 08:31 34.282953 -119.399432 101 4974ft 103kts
04-Sep-18 08:32 34.277683 -119.376443 101 4983ft 103kts
04-Sep-18 08:33 34.271144 -119.347952 101 4982ft 103kts
04-Sep-18 08:34 34.263462 -119.314528 101 4981ft 103kts
04-Sep-18 08:35 34.255883 -119.281599 101 4981ft 103kts
04-Sep-18 08:36 34.248272 -119.248561 101 4981ft 103kts
04-Sep-18 08:37 34.240684 -119.215672 101 4981ft 103kts
04-Sep-18 08:38 34.232920 -119.182070 102 4981ft 104kts
04-Sep-18 08:39 34.225106 -119.148298 102 4982ft 104kts
04-Sep-18 08:40 34.217299 -119.114607 102 4982ft 104kts
04-Sep-18 08:41 34.213189 -119.080437 85 4983ft 103kts
04-Sep-18 08:42 34.213691 -119.045761 84 4983ft 103kts
04-Sep-18 08:43 34.214319 -119.010986 84 4983ft 103kts
04-Sep-18 08:44 34.214983 -118.976214 84 4983ft 103kts
04-Sep-18 08:45 34.215654 -118.941405 84 4983ft 103kts
04-Sep-18 08:46 34.216321 -118.906567 84 4983ft 103kts
04-Sep-18 08:47 34.216959 -118.872828 84 4983ft 103kts
04-Sep-18 08:48 34.217661 -118.837981 84 4983ft 103kts
04-Sep-18 08:49 34.218269 -118.803156 84 4983ft 104kts
04-Sep-18 08:50 34.218882 -118.768439 84 4983ft 103kts
04-Sep-18 08:51 34.219492 -118.734026 84 4982ft 102kts
04-Sep-18 08:52 34.219852 -118.713592 84 4982ft 101kts
04-Sep-18 08:53 34.220296 -118.688190 84 4982ft 100kts
04-Sep-18 08:54 34.220876 -118.654608 85 4982ft 99kts
04-Sep-18 08:56 34.221439 -118.621433 85 4981ft 98kts
04-Sep-18 08:57 34.221990 -118.588410 85 4981ft 98kts
04-Sep-18 08:58 34.222522 -118.555963 86 4981ft 97kts
04-Sep-18 08:59 34.223027 -118.523721 86 4975ft 91kts
04-Sep-18 09:00 34.223341 -118.500838 86 4957ft 56kts
04-Sep-18 09:01 34.217319 -118.471930 106 4987ft 110kts
04-Sep-18 09:02 34.208169 -118.441237 106 4979ft 93kts
04-Sep-18 09:03 34.199412 -118.412120 106 4981ft 92kts
04-Sep-18 09:04 34.190405 -118.382306 107 4982ft 97kts
04-Sep-18 09:05 34.180776 -118.350566 107 4981ft 102kts
04-Sep-18 09:06 34.173728 -118.327391 107 4981ft 103kts
04-Sep-18 09:07 34.166872 -118.305005 104 5005ft 100kts
04-Sep-18 09:08 34.158124 -118.276251 105 5008ft 101kts
04-Sep-18 09:09 34.148461 -118.244347 106 5009ft 100kts
04-Sep-18 09:10 34.138760 -118.212550 106 5009ft 101kts
04-Sep-18 09:11 34.129055 -118.180777 106 5008ft 101kts
04-Sep-18 09:12 34.119333 -118.149054 106 5009ft 101kts
04-Sep-18 09:13 34.109580 -118.117297 107 5010ft 101kts
04-Sep-18 09:14 34.099869 -118.085664 105 5001ft 101kts
04-Sep-18 09:15 34.090148 -118.053865 105 5001ft 101kts
04-Sep-18 09:16 34.080335 -118.021867 106 4999ft 101kts
04-Sep-18 09:17 34.070525 -117.989985 106 5001ft 101kts
04-Sep-18 09:18 34.060672 -117.958053 105 4999ft 102kts
04-Sep-18 09:19 34.050821 -117.926022 106 4998ft 102kts
04-Sep-18 09:20 34.040963 -117.894033 106 4999ft 102kts
04-Sep-18 09:21 34.031208 -117.862367 106 4999ft 102kts
04-Sep-18 09:22 34.021279 -117.830375 106 5002ft 101kts
04-Sep-18 09:23 34.011427 -117.798491 108 5001ft 101kts
04-Sep-18 09:24 34.001503 -117.766513 105 5000ft 102kts
04-Sep-18 09:25 33.990655 -117.734955 107 5000ft 102kts
04-Sep-18 09:26 33.979778 -117.704037 110 4998ft 102kts
04-Sep-18 09:27 33.972535 -117.683404 107 5001ft 102kts
04-Sep-18 09:28 33.967035 -117.667166 85 4998ft 99kts
04-Sep-18 09:29 33.972406 -117.635329 74 5000ft 100kts
04-Sep-18 09:30 33.978076 -117.603448 75 4998ft 101kts
04-Sep-18 09:31 33.983508 -117.573114 73 4998ft 101kts
04-Sep-18 09:32 33.988542 -117.544495 75 4998ft 101kts
04-Sep-18 09:33 33.994368 -117.511978 74 4998ft 101kts
04-Sep-18 09:34 34.000116 -117.479700 75 4999ft 101kts
04-Sep-18 09:35 34.006041 -117.446533 74 5000ft 100kts
04-Sep-18 09:36 34.011794 -117.413517 74 5000ft 101kts
04-Sep-18 09:37 34.017633 -117.380323 73 5000ft 101kts
04-Sep-18 09:38 34.023011 -117.350022 74 4995ft 92kts
04-Sep-18 09:39 34.039626 -117.343385 340 4994ft 73kts
04-Sep-18 09:40 34.048530 -117.369283 292 4472ft 94kts
04-Sep-18 09:41 34.054868 -117.402174 275 3173ft 100kts
04-Sep-18 09:42 34.054901 -117.429256 275 3064ft 76kts
04-Sep-18 09:43 34.054936 -117.458274 273 2942ft 97kts
04-Sep-18 09:44 34.054958 -117.492813 273 2435ft 106kts
04-Sep-18 09:45 34.054962 -117.526259 272 1884ft 89kts
04-Sep-18 09:46 34.054986 -117.555420 272 1418ft 86kts
04-Sep-18 09:47 34.054901 -117.584068 275 941ft 78kts
04-Sep-18 09:48 34.054088 -117.594264 237 919ft 0kts
04-Sep-18 09:49 34.053841 -117.596945 275 917ft 22kts
04-Sep-18 09:50 34.053831 -117.605237 272 920ft 27kts
04-Sep-18 09:51 34.053163 -117.609330 353 921ft 0kts

Navigation Log

Ident Type
1. KSBA Airport
2. KWANG Fix
3. CMA Navaid
4. VNY Navaid
5. DARTS Fix
6. PURMS Fix
7. ELMOO Fix
8. ITSME Fix
9. PIRRO Fix
10. ADAMM Fix
11. BAYJY Fix
12. TIFNI Fix
13. PDZ Navaid
14. KONT Airport